sensor_id;sensor_type;location;lat;lon;timestamp;temperature;humidity
78490;DHT22;67776;52.012;4.736;2023-07-31T00:00:50;17.04;95.36
78490;DHT22;67776;52.012;4.736;2023-07-31T00:03:15;17.02;95.20
78490;DHT22;67776;52.012;4.736;2023-07-31T00:05:40;17.02;94.98
78490;DHT22;67776;52.012;4.736;2023-07-31T00:08:06;16.99;95.07
78490;DHT22;67776;52.012;4.736;2023-07-31T00:10:31;17.04;94.66
78490;DHT22;67776;52.012;4.736;2023-07-31T00:12:57;17.00;95.04
78490;DHT22;67776;52.012;4.736;2023-07-31T00:15:22;16.99;95.57
78490;DHT22;67776;52.012;4.736;2023-07-31T00:17:47;16.94;95.80
78490;DHT22;67776;52.012;4.736;2023-07-31T00:20:13;16.89;95.78
78490;DHT22;67776;52.012;4.736;2023-07-31T00:22:38;16.91;95.66
78490;DHT22;67776;52.012;4.736;2023-07-31T00:25:04;16.89;95.81
78490;DHT22;67776;52.012;4.736;2023-07-31T00:27:31;16.90;95.42
78490;DHT22;67776;52.012;4.736;2023-07-31T00:29:57;16.83;96.21
78490;DHT22;67776;52.012;4.736;2023-07-31T00:32:22;16.80;96.01
78490;DHT22;67776;52.012;4.736;2023-07-31T00:34:47;16.73;96.38
78490;DHT22;67776;52.012;4.736;2023-07-31T00:37:13;16.75;96.93
78490;DHT22;67776;52.012;4.736;2023-07-31T00:39:38;16.76;96.14
78490;DHT22;67776;52.012;4.736;2023-07-31T00:42:04;16.76;95.70
78490;DHT22;67776;52.012;4.736;2023-07-31T00:44:29;16.77;96.83
78490;DHT22;67776;52.012;4.736;2023-07-31T00:46:55;16.73;97.00
78490;DHT22;67776;52.012;4.736;2023-07-31T00:49:22;16.68;96.37
78490;DHT22;67776;52.012;4.736;2023-07-31T00:51:47;16.73;96.50
78490;DHT22;67776;52.012;4.736;2023-07-31T00:54:13;16.70;96.58
78490;DHT22;67776;52.012;4.736;2023-07-31T00:56:39;16.66;96.87
78490;DHT22;67776;52.012;4.736;2023-07-31T00:59:05;16.69;96.66
78490;DHT22;67776;52.012;4.736;2023-07-31T01:01:31;16.66;96.56
78490;DHT22;67776;52.012;4.736;2023-07-31T01:03:56;16.70;96.83
78490;DHT22;67776;52.012;4.736;2023-07-31T01:06:47;16.69;97.14
78490;DHT22;67776;52.012;4.736;2023-07-31T01:11:53;16.69;97.19
78490;DHT22;67776;52.012;4.736;2023-07-31T01:14:21;16.70;96.39
78490;DHT22;67776;52.012;4.736;2023-07-31T01:16:46;16.73;96.18
78490;DHT22;67776;52.012;4.736;2023-07-31T01:19:14;16.66;95.88
78490;DHT22;67776;52.012;4.736;2023-07-31T01:22:25;16.59;95.77
78490;DHT22;67776;52.012;4.736;2023-07-31T01:25:19;16.48;95.82
78490;DHT22;67776;52.012;4.736;2023-07-31T01:28:08;16.44;95.52
78490;DHT22;67776;52.012;4.736;2023-07-31T01:30:41;16.35;95.80
78490;DHT22;67776;52.012;4.736;2023-07-31T01:33:08;16.38;95.93
78490;DHT22;67776;52.012;4.736;2023-07-31T01:35:35;16.40;96.27
78490;DHT22;67776;52.012;4.736;2023-07-31T01:38:01;16.40;96.72
78490;DHT22;67776;52.012;4.736;2023-07-31T01:40:26;16.45;96.22
78490;DHT22;67776;52.012;4.736;2023-07-31T01:42:52;16.45;96.25
78490;DHT22;67776;52.012;4.736;2023-07-31T01:45:17;16.49;96.48
78490;DHT22;67776;52.012;4.736;2023-07-31T01:47:42;16.58;96.36
78490;DHT22;67776;52.012;4.736;2023-07-31T01:50:08;16.68;95.06
78490;DHT22;67776;52.012;4.736;2023-07-31T01:52:34;16.63;95.67
78490;DHT22;67776;52.012;4.736;2023-07-31T01:54:59;16.69;95.98
78490;DHT22;67776;52.012;4.736;2023-07-31T01:57:24;16.72;94.77
78490;DHT22;67776;52.012;4.736;2023-07-31T01:59:49;16.70;95.03
78490;DHT22;67776;52.012;4.736;2023-07-31T02:02:16;16.70;94.74
78490;DHT22;67776;52.012;4.736;2023-07-31T02:04:41;16.63;95.17
78490;DHT22;67776;52.012;4.736;2023-07-31T02:07:06;16.65;95.52
78490;DHT22;67776;52.012;4.736;2023-07-31T02:09:32;16.65;95.68
78490;DHT22;67776;52.012;4.736;2023-07-31T02:11:57;16.62;95.21
78490;DHT22;67776;52.012;4.736;2023-07-31T02:14:22;16.68;95.64
78490;DHT22;67776;52.012;4.736;2023-07-31T02:16:48;16.68;94.10
78490;DHT22;67776;52.012;4.736;2023-07-31T02:19:13;16.69;94.99
78490;DHT22;67776;52.012;4.736;2023-07-31T02:21:38;16.77;93.47
78490;DHT22;67776;52.012;4.736;2023-07-31T02:24:04;16.76;93.88
78490;DHT22;67776;52.012;4.736;2023-07-31T02:26:29;16.69;94.40
78490;DHT22;67776;52.012;4.736;2023-07-31T02:28:55;16.68;94.16
78490;DHT22;67776;52.012;4.736;2023-07-31T02:31:20;16.73;93.76
78490;DHT22;67776;52.012;4.736;2023-07-31T02:33:45;16.80;93.55
78490;DHT22;67776;52.012;4.736;2023-07-31T02:36:10;16.76;94.05
78490;DHT22;67776;52.012;4.736;2023-07-31T02:38:36;16.73;93.90
78490;DHT22;67776;52.012;4.736;2023-07-31T02:41:01;16.66;95.43
78490;DHT22;67776;52.012;4.736;2023-07-31T02:43:26;16.68;94.41
78490;DHT22;67776;52.012;4.736;2023-07-31T02:45:52;16.79;92.00
78490;DHT22;67776;52.012;4.736;2023-07-31T02:48:18;16.72;93.11
78490;DHT22;67776;52.012;4.736;2023-07-31T02:50:44;16.70;92.60
78490;DHT22;67776;52.012;4.736;2023-07-31T02:53:10;16.60;94.26
78490;DHT22;67776;52.012;4.736;2023-07-31T02:55:35;16.62;92.64
78490;DHT22;67776;52.012;4.736;2023-07-31T02:58:00;16.63;93.02
78490;DHT22;67776;52.012;4.736;2023-07-31T03:00:26;16.63;93.54
78490;DHT22;67776;52.012;4.736;2023-07-31T03:02:51;16.62;93.89
78490;DHT22;67776;52.012;4.736;2023-07-31T03:05:16;16.51;93.48
78490;DHT22;67776;52.012;4.736;2023-07-31T03:07:41;16.56;93.18
78490;DHT22;67776;52.012;4.736;2023-07-31T03:10:07;16.53;92.82
78490;DHT22;67776;52.012;4.736;2023-07-31T03:12:33;16.60;92.89
78490;DHT22;67776;52.012;4.736;2023-07-31T03:14:58;16.65;92.09
78490;DHT22;67776;52.012;4.736;2023-07-31T03:17:23;16.65;93.36
78490;DHT22;67776;52.012;4.736;2023-07-31T03:19:49;16.65;91.75
78490;DHT22;67776;52.012;4.736;2023-07-31T03:22:14;16.59;92.86
78490;DHT22;67776;52.012;4.736;2023-07-31T03:24:39;16.62;92.45
78490;DHT22;67776;52.012;4.736;2023-07-31T03:27:05;16.69;93.05
78490;DHT22;67776;52.012;4.736;2023-07-31T03:29:30;16.76;91.29
78490;DHT22;67776;52.012;4.736;2023-07-31T03:31:56;16.70;92.85
78490;DHT22;67776;52.012;4.736;2023-07-31T03:34:21;16.63;93.18
78490;DHT22;67776;52.012;4.736;2023-07-31T03:36:47;16.69;92.28
78490;DHT22;67776;52.012;4.736;2023-07-31T03:39:12;16.69;92.83
78490;DHT22;67776;52.012;4.736;2023-07-31T03:41:37;16.66;92.86
78490;DHT22;67776;52.012;4.736;2023-07-31T03:44:03;16.72;92.04
78490;DHT22;67776;52.012;4.736;2023-07-31T03:46:28;16.63;93.96
78490;DHT22;67776;52.012;4.736;2023-07-31T03:48:53;16.68;92.34
78490;DHT22;67776;52.012;4.736;2023-07-31T03:51:19;16.59;94.01
78490;DHT22;67776;52.012;4.736;2023-07-31T03:53:44;16.42;93.99
78490;DHT22;67776;52.012;4.736;2023-07-31T03:56:10;16.38;94.38
78490;DHT22;67776;52.012;4.736;2023-07-31T03:58:36;16.34;95.29
78490;DHT22;67776;52.012;4.736;2023-07-31T04:01:02;16.21;95.90
78490;DHT22;67776;52.012;4.736;2023-07-31T04:03:27;16.18;96.08
78490;DHT22;67776;52.012;4.736;2023-07-31T04:05:54;16.15;95.85
78490;DHT22;67776;52.012;4.736;2023-07-31T04:08:23;16.15;96.65
78490;DHT22;67776;52.012;4.736;2023-07-31T04:10:48;16.08;96.61
78490;DHT22;67776;52.012;4.736;2023-07-31T04:13:14;16.06;96.47
78490;DHT22;67776;52.012;4.736;2023-07-31T04:15:40;16.06;96.76
78490;DHT22;67776;52.012;4.736;2023-07-31T04:18:05;16.07;96.15
78490;DHT22;67776;52.012;4.736;2023-07-31T04:20:31;16.08;96.63
78490;DHT22;67776;52.012;4.736;2023-07-31T04:22:56;16.06;96.28
78490;DHT22;67776;52.012;4.736;2023-07-31T04:25:21;16.06;96.82
78490;DHT22;67776;52.012;4.736;2023-07-31T04:27:47;16.07;96.45
78490;DHT22;67776;52.012;4.736;2023-07-31T04:30:12;16.04;97.64
78490;DHT22;67776;52.012;4.736;2023-07-31T04:32:37;15.97;97.13
78490;DHT22;67776;52.012;4.736;2023-07-31T04:35:03;16.01;97.83
78490;DHT22;67776;52.012;4.736;2023-07-31T04:37:28;16.00;97.75
78490;DHT22;67776;52.012;4.736;2023-07-31T04:39:54;16.03;97.74
78490;DHT22;67776;52.012;4.736;2023-07-31T04:42:19;15.96;97.62
78490;DHT22;67776;52.012;4.736;2023-07-31T04:44:44;15.94;97.79
78490;DHT22;67776;52.012;4.736;2023-07-31T04:47:10;15.96;98.03
78490;DHT22;67776;52.012;4.736;2023-07-31T04:49:35;15.94;97.85
78490;DHT22;67776;52.012;4.736;2023-07-31T04:52:00;15.97;97.86
78490;DHT22;67776;52.012;4.736;2023-07-31T04:54:26;15.93;97.82
78490;DHT22;67776;52.012;4.736;2023-07-31T04:56:51;15.87;98.00
78490;DHT22;67776;52.012;4.736;2023-07-31T04:59:17;15.89;97.68
78490;DHT22;67776;52.012;4.736;2023-07-31T05:01:43;15.87;97.66
78490;DHT22;67776;52.012;4.736;2023-07-31T05:04:12;15.89;97.57
78490;DHT22;67776;52.012;4.736;2023-07-31T05:06:37;15.86;97.67
78490;DHT22;67776;52.012;4.736;2023-07-31T05:09:03;15.89;97.70
78490;DHT22;67776;52.012;4.736;2023-07-31T05:11:28;15.87;97.73
78490;DHT22;67776;52.012;4.736;2023-07-31T05:13:53;15.89;97.83
78490;DHT22;67776;52.012;4.736;2023-07-31T05:16:19;15.89;97.64
78490;DHT22;67776;52.012;4.736;2023-07-31T05:18:44;15.89;97.86
78490;DHT22;67776;52.012;4.736;2023-07-31T05:21:09;15.91;97.83
78490;DHT22;67776;52.012;4.736;2023-07-31T05:23:35;15.83;98.09
78490;DHT22;67776;52.012;4.736;2023-07-31T05:26:07;15.87;98.17
78490;DHT22;67776;52.012;4.736;2023-07-31T05:28:34;15.90;98.01
78490;DHT22;67776;52.012;4.736;2023-07-31T05:31:00;15.93;98.11
78490;DHT22;67776;52.012;4.736;2023-07-31T05:33:26;15.97;98.26
78490;DHT22;67776;52.012;4.736;2023-07-31T05:35:51;15.94;98.15
78490;DHT22;67776;52.012;4.736;2023-07-31T05:38:17;15.94;97.90
78490;DHT22;67776;52.012;4.736;2023-07-31T05:40:42;15.98;98.01
78490;DHT22;67776;52.012;4.736;2023-07-31T05:43:08;15.98;98.26
78490;DHT22;67776;52.012;4.736;2023-07-31T05:45:34;16.06;98.26
78490;DHT22;67776;52.012;4.736;2023-07-31T05:48:00;16.04;98.19
78490;DHT22;67776;52.012;4.736;2023-07-31T05:50:25;16.06;98.44
78490;DHT22;67776;52.012;4.736;2023-07-31T05:52:50;16.10;98.13
78490;DHT22;67776;52.012;4.736;2023-07-31T05:55:16;16.07;98.19
78490;DHT22;67776;52.012;4.736;2023-07-31T05:57:42;16.14;98.18
78490;DHT22;67776;52.012;4.736;2023-07-31T06:00:07;16.15;98.15
78490;DHT22;67776;52.012;4.736;2023-07-31T06:02:33;16.13;98.32
78490;DHT22;67776;52.012;4.736;2023-07-31T06:05:02;16.17;98.09
78490;DHT22;67776;52.012;4.736;2023-07-31T06:07:27;16.22;97.90
78490;DHT22;67776;52.012;4.736;2023-07-31T06:09:53;16.26;97.93
78490;DHT22;67776;52.012;4.736;2023-07-31T06:12:20;16.21;97.91
78490;DHT22;67776;52.012;4.736;2023-07-31T06:14:45;16.26;97.98
78490;DHT22;67776;52.012;4.736;2023-07-31T06:17:10;16.29;97.79
78490;DHT22;67776;52.012;4.736;2023-07-31T06:19:36;16.28;97.87
78490;DHT22;67776;52.012;4.736;2023-07-31T06:22:01;16.29;98.22
78490;DHT22;67776;52.012;4.736;2023-07-31T06:24:28;16.31;97.79
78490;DHT22;67776;52.012;4.736;2023-07-31T06:26:53;16.38;97.82
78490;DHT22;67776;52.012;4.736;2023-07-31T06:29:19;16.47;97.59
78490;DHT22;67776;52.012;4.736;2023-07-31T06:31:44;16.48;97.43
78490;DHT22;67776;52.012;4.736;2023-07-31T06:34:09;16.58;98.11
78490;DHT22;67776;52.012;4.736;2023-07-31T06:36:35;16.48;97.56
78490;DHT22;67776;52.012;4.736;2023-07-31T06:39:00;16.48;97.36
78490;DHT22;67776;52.012;4.736;2023-07-31T06:41:25;16.55;97.55
78490;DHT22;67776;52.012;4.736;2023-07-31T06:43:51;16.56;98.09
78490;DHT22;67776;52.012;4.736;2023-07-31T06:46:16;16.53;97.98
78490;DHT22;67776;52.012;4.736;2023-07-31T06:48:41;16.51;97.98
78490;DHT22;67776;52.012;4.736;2023-07-31T06:51:07;16.56;98.12
78490;DHT22;67776;52.012;4.736;2023-07-31T06:53:32;16.53;98.34
78490;DHT22;67776;52.012;4.736;2023-07-31T06:55:57;16.55;97.77
78490;DHT22;67776;52.012;4.736;2023-07-31T06:58:23;16.53;97.76
78490;DHT22;67776;52.012;4.736;2023-07-31T07:00:48;16.53;98.06
78490;DHT22;67776;52.012;4.736;2023-07-31T07:03:18;16.55;98.03
78490;DHT22;67776;52.012;4.736;2023-07-31T07:05:43;16.58;97.96
78490;DHT22;67776;52.012;4.736;2023-07-31T07:08:09;16.59;98.17
78490;DHT22;67776;52.012;4.736;2023-07-31T07:10:34;16.62;98.19
78490;DHT22;67776;52.012;4.736;2023-07-31T07:12:59;16.72;98.04
78490;DHT22;67776;52.012;4.736;2023-07-31T07:15:25;16.75;97.83
78490;DHT22;67776;52.012;4.736;2023-07-31T07:17:50;16.75;98.24
78490;DHT22;67776;52.012;4.736;2023-07-31T07:20:15;16.79;97.81
78490;DHT22;67776;52.012;4.736;2023-07-31T07:22:41;16.86;97.79
78490;DHT22;67776;52.012;4.736;2023-07-31T07:25:08;16.81;97.79
78490;DHT22;67776;52.012;4.736;2023-07-31T07:27:33;16.87;97.92
78490;DHT22;67776;52.012;4.736;2023-07-31T07:29:59;16.84;98.01
78490;DHT22;67776;52.012;4.736;2023-07-31T07:32:24;16.83;98.30
78490;DHT22;67776;52.012;4.736;2023-07-31T07:34:50;16.81;98.04
78490;DHT22;67776;52.012;4.736;2023-07-31T07:37:15;16.81;97.58
78490;DHT22;67776;52.012;4.736;2023-07-31T07:39:41;16.83;98.32
78490;DHT22;67776;52.012;4.736;2023-07-31T07:42:06;16.91;97.92
78490;DHT22;67776;52.012;4.736;2023-07-31T07:44:32;16.91;98.22
78490;DHT22;67776;52.012;4.736;2023-07-31T07:46:57;16.91;98.00
78490;DHT22;67776;52.012;4.736;2023-07-31T07:49:23;16.96;98.24
78490;DHT22;67776;52.012;4.736;2023-07-31T07:51:49;17.00;98.18
78490;DHT22;67776;52.012;4.736;2023-07-31T07:54:14;17.00;98.11
78490;DHT22;67776;52.012;4.736;2023-07-31T07:56:42;17.04;97.64
78490;DHT22;67776;52.012;4.736;2023-07-31T07:59:07;17.02;97.96
78490;DHT22;67776;52.012;4.736;2023-07-31T08:01:32;17.10;97.85
78490;DHT22;67776;52.012;4.736;2023-07-31T08:03:58;17.18;97.71
78490;DHT22;67776;52.012;4.736;2023-07-31T08:06:23;17.25;97.86
78490;DHT22;67776;52.012;4.736;2023-07-31T08:08:49;17.27;96.95
78490;DHT22;67776;52.012;4.736;2023-07-31T08:11:14;17.27;97.15
78490;DHT22;67776;52.012;4.736;2023-07-31T08:13:40;17.20;97.55
78490;DHT22;67776;52.012;4.736;2023-07-31T08:16:05;17.18;97.52
78490;DHT22;67776;52.012;4.736;2023-07-31T08:18:31;17.25;97.39
78490;DHT22;67776;52.012;4.736;2023-07-31T08:20:57;17.17;97.63
78490;DHT22;67776;52.012;4.736;2023-07-31T08:23:22;17.15;97.03
78490;DHT22;67776;52.012;4.736;2023-07-31T08:25:48;17.21;97.57
78490;DHT22;67776;52.012;4.736;2023-07-31T08:28:14;17.24;97.46
78490;DHT22;67776;52.012;4.736;2023-07-31T08:30:40;17.18;97.52
78490;DHT22;67776;52.012;4.736;2023-07-31T08:33:06;17.24;97.39
78490;DHT22;67776;52.012;4.736;2023-07-31T08:35:32;17.25;97.40
78490;DHT22;67776;52.012;4.736;2023-07-31T08:37:57;17.27;97.90
78490;DHT22;67776;52.012;4.736;2023-07-31T08:40:22;17.30;98.03
78490;DHT22;67776;52.012;4.736;2023-07-31T08:42:50;17.25;97.28
78490;DHT22;67776;52.012;4.736;2023-07-31T08:45:19;17.28;97.47
78490;DHT22;67776;52.012;4.736;2023-07-31T08:47:46;17.35;97.28
78490;DHT22;67776;52.012;4.736;2023-07-31T08:50:13;17.38;97.59
78490;DHT22;67776;52.012;4.736;2023-07-31T08:52:39;17.39;97.66
78490;DHT22;67776;52.012;4.736;2023-07-31T08:55:05;17.45;97.68
78490;DHT22;67776;52.012;4.736;2023-07-31T08:57:31;17.39;97.23
78490;DHT22;67776;52.012;4.736;2023-07-31T08:59:59;17.51;97.12
78490;DHT22;67776;52.012;4.736;2023-07-31T09:02:30;17.51;97.71
78490;DHT22;67776;52.012;4.736;2023-07-31T09:04:57;17.52;97.86
78490;DHT22;67776;52.012;4.736;2023-07-31T09:07:23;17.53;97.21
78490;DHT22;67776;52.012;4.736;2023-07-31T09:09:49;17.52;97.54
78490;DHT22;67776;52.012;4.736;2023-07-31T09:12:15;17.56;97.65
78490;DHT22;67776;52.012;4.736;2023-07-31T09:14:42;17.61;97.30
78490;DHT22;67776;52.012;4.736;2023-07-31T09:17:08;17.61;97.77
78490;DHT22;67776;52.012;4.736;2023-07-31T09:19:35;17.52;97.91
78490;DHT22;67776;52.012;4.736;2023-07-31T09:22:07;17.55;98.07
78490;DHT22;67776;52.012;4.736;2023-07-31T09:24:34;17.63;97.64
78490;DHT22;67776;52.012;4.736;2023-07-31T09:27:01;17.65;97.28
78490;DHT22;67776;52.012;4.736;2023-07-31T09:29:29;17.75;97.00
78490;DHT22;67776;52.012;4.736;2023-07-31T09:31:55;17.68;97.81
78490;DHT22;67776;52.012;4.736;2023-07-31T09:34:29;17.72;98.13
78490;DHT22;67776;52.012;4.736;2023-07-31T09:36:54;17.73;97.73
78490;DHT22;67776;52.012;4.736;2023-07-31T09:39:19;17.83;97.25
78490;DHT22;67776;52.012;4.736;2023-07-31T09:41:54;17.86;97.10
78490;DHT22;67776;52.012;4.736;2023-07-31T09:44:19;17.85;97.68
78490;DHT22;67776;52.012;4.736;2023-07-31T09:46:45;17.85;96.79
78490;DHT22;67776;52.012;4.736;2023-07-31T09:49:12;17.78;97.18
78490;DHT22;67776;52.012;4.736;2023-07-31T09:51:39;17.78;97.42
78490;DHT22;67776;52.012;4.736;2023-07-31T09:54:15;17.73;96.81
78490;DHT22;67776;52.012;4.736;2023-07-31T09:56:43;17.90;97.00
78490;DHT22;67776;52.012;4.736;2023-07-31T09:59:17;17.86;96.85
78490;DHT22;67776;52.012;4.736;2023-07-31T10:01:45;17.91;96.02
78490;DHT22;67776;52.012;4.736;2023-07-31T10:04:12;17.91;96.26
78490;DHT22;67776;52.012;4.736;2023-07-31T10:06:38;17.97;96.78
78490;DHT22;67776;52.012;4.736;2023-07-31T10:09:07;17.96;96.49
78490;DHT22;67776;52.012;4.736;2023-07-31T10:11:39;17.89;97.05
78490;DHT22;67776;52.012;4.736;2023-07-31T10:14:07;18.00;96.07
78490;DHT22;67776;52.012;4.736;2023-07-31T10:16:35;18.00;96.87
78490;DHT22;67776;52.012;4.736;2023-07-31T10:19:01;18.11;96.33
78490;DHT22;67776;52.012;4.736;2023-07-31T10:21:27;18.06;96.65
78490;DHT22;67776;52.012;4.736;2023-07-31T10:23:53;18.07;95.91
78490;DHT22;67776;52.012;4.736;2023-07-31T10:26:19;17.96;96.22
78490;DHT22;67776;52.012;4.736;2023-07-31T10:28:47;17.98;95.94
78490;DHT22;67776;52.012;4.736;2023-07-31T10:31:14;18.04;96.24
78490;DHT22;67776;52.012;4.736;2023-07-31T10:33:40;18.03;96.24
78490;DHT22;67776;52.012;4.736;2023-07-31T10:36:18;18.03;95.82
78490;DHT22;67776;52.012;4.736;2023-07-31T10:38:43;18.07;95.81
78490;DHT22;67776;52.012;4.736;2023-07-31T10:41:09;18.07;96.08
78490;DHT22;67776;52.012;4.736;2023-07-31T10:43:36;18.04;96.02
78490;DHT22;67776;52.012;4.736;2023-07-31T10:46:07;18.10;95.59
78490;DHT22;67776;52.012;4.736;2023-07-31T10:48:34;18.08;95.58
78490;DHT22;67776;52.012;4.736;2023-07-31T10:50:59;18.07;95.50
78490;DHT22;67776;52.012;4.736;2023-07-31T10:53:30;18.08;95.74
78490;DHT22;67776;52.012;4.736;2023-07-31T10:56:00;18.06;96.00
78490;DHT22;67776;52.012;4.736;2023-07-31T10:58:26;18.01;96.37
78490;DHT22;67776;52.012;4.736;2023-07-31T11:00:55;18.04;96.48
78490;DHT22;67776;52.012;4.736;2023-07-31T11:03:25;17.98;96.35
78490;DHT22;67776;52.012;4.736;2023-07-31T11:06:02;17.94;96.86
78490;DHT22;67776;52.012;4.736;2023-07-31T11:08:35;17.96;97.14
78490;DHT22;67776;52.012;4.736;2023-07-31T11:13:29;17.93;96.94
78490;DHT22;67776;52.012;4.736;2023-07-31T11:15:55;17.93;97.35
78490;DHT22;67776;52.012;4.736;2023-07-31T11:18:20;18.07;97.18
78490;DHT22;67776;52.012;4.736;2023-07-31T11:20:46;18.08;96.62
78490;DHT22;67776;52.012;4.736;2023-07-31T11:23:11;18.13;96.94
78490;DHT22;67776;52.012;4.736;2023-07-31T11:25:38;18.03;96.67
78490;DHT22;67776;52.012;4.736;2023-07-31T11:28:10;18.06;97.44
78490;DHT22;67776;52.012;4.736;2023-07-31T11:30:36;18.15;97.45
78490;DHT22;67776;52.012;4.736;2023-07-31T11:33:03;18.07;97.12
78490;DHT22;67776;52.012;4.736;2023-07-31T11:35:36;18.10;96.25
78490;DHT22;67776;52.012;4.736;2023-07-31T11:38:02;18.18;96.01
78490;DHT22;67776;52.012;4.736;2023-07-31T11:40:28;18.14;97.03
78490;DHT22;67776;52.012;4.736;2023-07-31T11:42:58;18.15;96.94
78490;DHT22;67776;52.012;4.736;2023-07-31T11:45:27;18.17;96.54
78490;DHT22;67776;52.012;4.736;2023-07-31T11:47:55;18.15;96.44
78490;DHT22;67776;52.012;4.736;2023-07-31T11:50:22;18.11;97.23
78490;DHT22;67776;52.012;4.736;2023-07-31T11:52:57;18.08;97.00
78490;DHT22;67776;52.012;4.736;2023-07-31T11:55:23;18.10;96.51
78490;DHT22;67776;52.012;4.736;2023-07-31T11:57:49;18.08;97.21
78490;DHT22;67776;52.012;4.736;2023-07-31T12:00:19;17.97;97.59
78490;DHT22;67776;52.012;4.736;2023-07-31T12:02:44;18.06;97.52
78490;DHT22;67776;52.012;4.736;2023-07-31T12:05:11;18.11;97.66
78490;DHT22;67776;52.012;4.736;2023-07-31T12:07:51;18.20;97.12
78490;DHT22;67776;52.012;4.736;2023-07-31T12:10:31;18.34;96.49
78490;DHT22;67776;52.012;4.736;2023-07-31T12:13:07;18.31;96.76
78490;DHT22;67776;52.012;4.736;2023-07-31T12:15:40;18.40;96.44
78490;DHT22;67776;52.012;4.736;2023-07-31T12:18:09;18.52;96.43
78490;DHT22;67776;52.012;4.736;2023-07-31T12:20:34;18.58;96.01
78490;DHT22;67776;52.012;4.736;2023-07-31T12:23:01;18.76;96.15
78490;DHT22;67776;52.012;4.736;2023-07-31T12:25:31;18.95;95.56
78490;DHT22;67776;52.012;4.736;2023-07-31T12:27:56;19.02;95.14
78490;DHT22;67776;52.012;4.736;2023-07-31T12:30:29;18.89;94.96
78490;DHT22;67776;52.012;4.736;2023-07-31T12:32:55;18.75;94.99
78490;DHT22;67776;52.012;4.736;2023-07-31T12:35:20;18.66;95.05
78490;DHT22;67776;52.012;4.736;2023-07-31T12:37:45;18.65;94.96
78490;DHT22;67776;52.012;4.736;2023-07-31T12:40:11;18.65;94.29
78490;DHT22;67776;52.012;4.736;2023-07-31T12:42:36;18.66;95.34
78490;DHT22;67776;52.012;4.736;2023-07-31T12:45:02;18.63;94.31
78490;DHT22;67776;52.012;4.736;2023-07-31T12:47:29;18.63;96.02
78490;DHT22;67776;52.012;4.736;2023-07-31T12:49:54;18.55;94.80
78490;DHT22;67776;52.012;4.736;2023-07-31T12:52:19;18.52;96.27
78490;DHT22;67776;52.012;4.736;2023-07-31T12:54:45;18.70;95.55
78490;DHT22;67776;52.012;4.736;2023-07-31T12:57:11;18.79;94.92
78490;DHT22;67776;52.012;4.736;2023-07-31T12:59:36;18.93;94.69
78490;DHT22;67776;52.012;4.736;2023-07-31T13:02:02;19.00;94.48
78490;DHT22;67776;52.012;4.736;2023-07-31T13:04:27;18.72;94.73
78490;DHT22;67776;52.012;4.736;2023-07-31T13:06:53;18.61;95.97
78490;DHT22;67776;52.012;4.736;2023-07-31T13:09:18;18.52;95.94
78490;DHT22;67776;52.012;4.736;2023-07-31T13:11:43;18.48;97.04
78490;DHT22;67776;52.012;4.736;2023-07-31T13:14:09;18.61;96.68
78490;DHT22;67776;52.012;4.736;2023-07-31T13:16:35;18.73;96.29
78490;DHT22;67776;52.012;4.736;2023-07-31T13:19:00;18.73;95.57
78490;DHT22;67776;52.012;4.736;2023-07-31T13:21:26;18.82;95.72
78490;DHT22;67776;52.012;4.736;2023-07-31T13:23:51;18.80;95.77
78490;DHT22;67776;52.012;4.736;2023-07-31T13:26:17;18.59;96.57
78490;DHT22;67776;52.012;4.736;2023-07-31T13:28:42;18.56;97.07
78490;DHT22;67776;52.012;4.736;2023-07-31T13:31:08;18.49;96.77
78490;DHT22;67776;52.012;4.736;2023-07-31T13:33:33;18.58;97.28
78490;DHT22;67776;52.012;4.736;2023-07-31T13:35:58;18.61;96.94
78490;DHT22;67776;52.012;4.736;2023-07-31T13:38:24;18.68;97.47
78490;DHT22;67776;52.012;4.736;2023-07-31T13:40:49;18.56;97.33
78490;DHT22;67776;52.012;4.736;2023-07-31T13:43:15;18.56;96.77
78490;DHT22;67776;52.012;4.736;2023-07-31T13:45:40;18.55;97.33
78490;DHT22;67776;52.012;4.736;2023-07-31T13:48:06;18.65;97.30
78490;DHT22;67776;52.012;4.736;2023-07-31T13:50:31;18.69;96.79
78490;DHT22;67776;52.012;4.736;2023-07-31T13:52:57;18.70;96.58
78490;DHT22;67776;52.012;4.736;2023-07-31T13:55:25;18.69;96.86
78490;DHT22;67776;52.012;4.736;2023-07-31T13:57:50;18.65;97.38
78490;DHT22;67776;52.012;4.736;2023-07-31T14:00:16;18.66;97.10
78490;DHT22;67776;52.012;4.736;2023-07-31T14:02:41;18.75;96.63
78490;DHT22;67776;52.012;4.736;2023-07-31T14:05:10;18.73;96.56
78490;DHT22;67776;52.012;4.736;2023-07-31T14:07:35;18.66;96.98
78490;DHT22;67776;52.012;4.736;2023-07-31T14:10:01;18.65;97.77
78490;DHT22;67776;52.012;4.736;2023-07-31T14:12:26;18.55;97.27
78490;DHT22;67776;52.012;4.736;2023-07-31T14:14:54;18.49;97.47
78490;DHT22;67776;52.012;4.736;2023-07-31T14:17:20;18.40;97.06
78490;DHT22;67776;52.012;4.736;2023-07-31T14:19:45;18.51;97.68
78490;DHT22;67776;52.012;4.736;2023-07-31T14:22:10;18.45;97.21
78490;DHT22;67776;52.012;4.736;2023-07-31T14:24:36;18.40;97.34
78490;DHT22;67776;52.012;4.736;2023-07-31T14:27:01;18.41;98.08
78490;DHT22;67776;52.012;4.736;2023-07-31T14:29:27;18.37;97.66
78490;DHT22;67776;52.012;4.736;2023-07-31T14:31:52;18.34;97.79
78490;DHT22;67776;52.012;4.736;2023-07-31T14:34:18;18.25;97.36
78490;DHT22;67776;52.012;4.736;2023-07-31T14:36:43;18.25;97.19
78490;DHT22;67776;52.012;4.736;2023-07-31T14:39:09;18.24;97.77
78490;DHT22;67776;52.012;4.736;2023-07-31T14:41:35;18.23;97.34
78490;DHT22;67776;52.012;4.736;2023-07-31T14:44:00;18.28;98.26
78490;DHT22;67776;52.012;4.736;2023-07-31T14:46:25;18.30;97.93
78490;DHT22;67776;52.012;4.736;2023-07-31T14:48:50;18.31;98.03
78490;DHT22;67776;52.012;4.736;2023-07-31T14:51:16;18.30;97.94
78490;DHT22;67776;52.012;4.736;2023-07-31T14:53:42;18.28;97.60
78490;DHT22;67776;52.012;4.736;2023-07-31T14:56:08;18.27;97.92
78490;DHT22;67776;52.012;4.736;2023-07-31T14:58:33;18.25;97.81
78490;DHT22;67776;52.012;4.736;2023-07-31T15:00:59;18.23;98.60
78490;DHT22;67776;52.012;4.736;2023-07-31T15:03:24;18.18;98.27
78490;DHT22;67776;52.012;4.736;2023-07-31T15:05:50;18.14;98.15
78490;DHT22;67776;52.012;4.736;2023-07-31T15:08:15;18.15;98.29
78490;DHT22;67776;52.012;4.736;2023-07-31T15:10:41;18.14;98.25
78490;DHT22;67776;52.012;4.736;2023-07-31T15:13:06;18.11;98.18
78490;DHT22;67776;52.012;4.736;2023-07-31T15:15:32;18.08;98.34
78490;DHT22;67776;52.012;4.736;2023-07-31T15:17:57;18.11;98.44
78490;DHT22;67776;52.012;4.736;2023-07-31T15:20:22;18.00;98.20
78490;DHT22;67776;52.012;4.736;2023-07-31T15:22:48;18.01;97.80
78490;DHT22;67776;52.012;4.736;2023-07-31T15:25:13;17.96;98.23
78490;DHT22;67776;52.012;4.736;2023-07-31T15:27:39;18.00;98.19
78490;DHT22;67776;52.012;4.736;2023-07-31T15:30:05;17.96;98.04